sensor_id;sensor_type;location;lat;lon;timestamp;pressure;altitude;pressure_sealevel;temperature;humidity
56038;BME280;41907;47.848;9.000;2023-04-24T00:02:00;94921.88;;;10.40;100.00
56038;BME280;41907;47.848;9.000;2023-04-24T00:04:25;94922.91;;;10.27;100.00
56038;BME280;41907;47.848;9.000;2023-04-24T00:06:51;94923.50;;;10.32;100.00
56038;BME280;41907;47.848;9.000;2023-04-24T00:09:19;94926.09;;;10.20;100.00
56038;BME280;41907;47.848;9.000;2023-04-24T00:11:44;94920.31;;;10.39;100.00
56038;BME280;41907;47.848;9.000;2023-04-24T00:14:09;94926.25;;;10.44;100.00
56038;BME280;41907;47.848;9.000;2023-04-24T00:16:34;94922.78;;;10.44;100.00
56038;BME280;41907;47.848;9.000;2023-04-24T00:19:00;94918.81;;;10.50;100.00
56038;BME280;41907;47.848;9.000;2023-04-24T00:21:25;94922.06;;;10.56;100.00
56038;BME280;41907;47.848;9.000;2023-04-24T00:23:51;94919.72;;;10.54;100.00
56038;BME280;41907;47.848;9.000;2023-04-24T00:26:16;94907.03;;;10.51;100.00
56038;BME280;41907;47.848;9.000;2023-04-24T00:28:41;94907.81;;;10.52;100.00
56038;BME280;41907;47.848;9.000;2023-04-24T00:31:07;94901.63;;;10.60;100.00
56038;BME280;41907;47.848;9.000;2023-04-24T00:33:32;94901.97;;;10.58;100.00
56038;BME280;41907;47.848;9.000;2023-04-24T00:35:57;94895.97;;;10.61;100.00
56038;BME280;41907;47.848;9.000;2023-04-24T00:38:23;94901.56;;;10.68;100.00
56038;BME280;41907;47.848;9.000;2023-04-24T00:40:48;94894.78;;;10.71;100.00
56038;BME280;41907;47.848;9.000;2023-04-24T00:43:15;94893.22;;;10.70;100.00
56038;BME280;41907;47.848;9.000;2023-04-24T00:45:40;94885.56;;;10.68;100.00
56038;BME280;41907;47.848;9.000;2023-04-24T00:48:06;94888.34;;;10.72;100.00
56038;BME280;41907;47.848;9.000;2023-04-24T00:50:31;94883.81;;;10.72;100.00
56038;BME280;41907;47.848;9.000;2023-04-24T00:52:57;94887.53;;;10.59;100.00
56038;BME280;41907;47.848;9.000;2023-04-24T00:55:22;94886.31;;;10.57;100.00
56038;BME280;41907;47.848;9.000;2023-04-24T00:57:49;94882.97;;;10.60;100.00
56038;BME280;41907;47.848;9.000;2023-04-24T01:00:15;94886.03;;;10.50;100.00
56038;BME280;41907;47.848;9.000;2023-04-24T01:02:41;94884.53;;;10.40;100.00
56038;BME280;41907;47.848;9.000;2023-04-24T01:05:13;94883.47;;;10.12;100.00
56038;BME280;41907;47.848;9.000;2023-04-24T01:07:41;94885.84;;;10.13;100.00
56038;BME280;41907;47.848;9.000;2023-04-24T01:10:09;94877.94;;;10.25;100.00
56038;BME280;41907;47.848;9.000;2023-04-24T01:12:34;94876.84;;;10.26;100.00
56038;BME280;41907;47.848;9.000;2023-04-24T01:14:59;94873.50;;;10.29;100.00
56038;BME280;41907;47.848;9.000;2023-04-24T01:17:25;94879.03;;;10.24;100.00
56038;BME280;41907;47.848;9.000;2023-04-24T01:19:50;94876.38;;;10.24;100.00
56038;BME280;41907;47.848;9.000;2023-04-24T01:22:18;94882.38;;;10.13;100.00
56038;BME280;41907;47.848;9.000;2023-04-24T01:24:45;94887.00;;;10.03;100.00
56038;BME280;41907;47.848;9.000;2023-04-24T01:27:11;94886.66;;;10.05;100.00
56038;BME280;41907;47.848;9.000;2023-04-24T01:29:36;94881.13;;;10.19;100.00
56038;BME280;41907;47.848;9.000;2023-04-24T01:32:03;94892.09;;;10.17;100.00
56038;BME280;41907;47.848;9.000;2023-04-24T01:34:28;94897.00;;;10.06;100.00
56038;BME280;41907;47.848;9.000;2023-04-24T01:36:53;94893.34;;;10.11;100.00
56038;BME280;41907;47.848;9.000;2023-04-24T01:39:19;94890.91;;;10.06;100.00
56038;BME280;41907;47.848;9.000;2023-04-24T01:41:45;94887.13;;;10.07;100.00
56038;BME280;41907;47.848;9.000;2023-04-24T01:44:10;94883.44;;;9.99;100.00
56038;BME280;41907;47.848;9.000;2023-04-24T01:46:36;94883.66;;;9.86;100.00
56038;BME280;41907;47.848;9.000;2023-04-24T01:49:01;94881.16;;;9.89;100.00
56038;BME280;41907;47.848;9.000;2023-04-24T01:51:26;94877.94;;;9.75;100.00
56038;BME280;41907;47.848;9.000;2023-04-24T01:53:52;94873.44;;;9.67;100.00
56038;BME280;41907;47.848;9.000;2023-04-24T01:56:18;94880.06;;;9.61;100.00
56038;BME280;41907;47.848;9.000;2023-04-24T01:58:45;94881.63;;;9.62;100.00
56038;BME280;41907;47.848;9.000;2023-04-24T02:01:14;94890.50;;;9.66;100.00
56038;BME280;41907;47.848;9.000;2023-04-24T02:03:40;94886.13;;;9.70;100.00
56038;BME280;41907;47.848;9.000;2023-04-24T02:06:05;94881.63;;;9.62;100.00
56038;BME280;41907;47.848;9.000;2023-04-24T02:08:30;94877.19;;;9.66;100.00
56038;BME280;41907;47.848;9.000;2023-04-24T02:10:55;94878.75;;;9.67;100.00
56038;BME280;41907;47.848;9.000;2023-04-24T02:13:21;94870.78;;;9.67;100.00
56038;BME280;41907;47.848;9.000;2023-04-24T02:15:46;94880.97;;;9.65;100.00
56038;BME280;41907;47.848;9.000;2023-04-24T02:18:11;94884.59;;;9.60;100.00
56038;BME280;41907;47.848;9.000;2023-04-24T02:20:37;94884.88;;;9.67;100.00
56038;BME280;41907;47.848;9.000;2023-04-24T02:23:03;94890.34;;;9.71;100.00
56038;BME280;41907;47.848;9.000;2023-04-24T02:25:28;94886.38;;;9.77;100.00
56038;BME280;41907;47.848;9.000;2023-04-24T02:27:53;94880.97;;;9.65;100.00
56038;BME280;41907;47.848;9.000;2023-04-24T02:30:18;94878.03;;;9.58;100.00
56038;BME280;41907;47.848;9.000;2023-04-24T02:32:43;94879.44;;;9.55;100.00
56038;BME280;41907;47.848;9.000;2023-04-24T02:35:09;94880.38;;;9.59;100.00
56038;BME280;41907;47.848;9.000;2023-04-24T02:37:34;94880.88;;;9.53;100.00
56038;BME280;41907;47.848;9.000;2023-04-24T02:40:00;94880.44;;;9.51;100.00
56038;BME280;41907;47.848;9.000;2023-04-24T02:42:25;94883.09;;;9.51;100.00
56038;BME280;41907;47.848;9.000;2023-04-24T02:44:50;94879.19;;;9.48;100.00
56038;BME280;41907;47.848;9.000;2023-04-24T02:47:16;94880.44;;;9.51;100.00
56038;BME280;41907;47.848;9.000;2023-04-24T02:49:41;94880.69;;;9.58;100.00
56038;BME280;41907;47.848;9.000;2023-04-24T02:52:06;94881.38;;;9.46;100.00
56038;BME280;41907;47.848;9.000;2023-04-24T02:54:32;94878.72;;;9.46;100.00
56038;BME280;41907;47.848;9.000;2023-04-24T02:56:57;94870.50;;;9.30;100.00
56038;BME280;41907;47.848;9.000;2023-04-24T02:59:24;94875.47;;;9.41;100.00
56038;BME280;41907;47.848;9.000;2023-04-24T03:01:49;94874.16;;;9.47;100.00
56038;BME280;41907;47.848;9.000;2023-04-24T03:04:15;94869.94;;;9.46;100.00
56038;BME280;41907;47.848;9.000;2023-04-24T03:06:40;94873.44;;;9.38;100.00
56038;BME280;41907;47.848;9.000;2023-04-24T03:09:05;94878.44;;;9.39;100.00
56038;BME280;41907;47.848;9.000;2023-04-24T03:11:31;94875.31;;;9.37;100.00
56038;BME280;41907;47.848;9.000;2023-04-24T03:13:56;94864.25;;;9.26;100.00
56038;BME280;41907;47.848;9.000;2023-04-24T03:16:21;94880.97;;;9.27;100.00
56038;BME280;41907;47.848;9.000;2023-04-24T03:18:46;94872.38;;;9.30;100.00
56038;BME280;41907;47.848;9.000;2023-04-24T03:21:11;94872.28;;;9.47;100.00
56038;BME280;41907;47.848;9.000;2023-04-24T03:23:37;94864.03;;;9.40;100.00
56038;BME280;41907;47.848;9.000;2023-04-24T03:26:02;94869.66;;;9.39;100.00
56038;BME280;41907;47.848;9.000;2023-04-24T03:28:27;94866.81;;;9.44;100.00
56038;BME280;41907;47.848;9.000;2023-04-24T03:30:52;94860.41;;;9.45;100.00
56038;BME280;41907;47.848;9.000;2023-04-24T03:33:18;94866.69;;;9.40;100.00
56038;BME280;41907;47.848;9.000;2023-04-24T03:35:43;94870.25;;;9.44;100.00
56038;BME280;41907;47.848;9.000;2023-04-24T03:38:08;94869.31;;;9.49;100.00
56038;BME280;41907;47.848;9.000;2023-04-24T03:40:33;94874.63;;;9.49;100.00
56038;BME280;41907;47.848;9.000;2023-04-24T03:42:59;94877.03;;;9.42;100.00
56038;BME280;41907;47.848;9.000;2023-04-24T03:45:24;94880.63;;;9.37;100.00
56038;BME280;41907;47.848;9.000;2023-04-24T03:47:49;94881.69;;;9.45;100.00
56038;BME280;41907;47.848;9.000;2023-04-24T03:50:15;94875.09;;;9.51;100.00
56038;BME280;41907;47.848;9.000;2023-04-24T03:52:40;94871.56;;;9.38;100.00
56038;BME280;41907;47.848;9.000;2023-04-24T03:55:05;94876.13;;;9.29;100.00
56038;BME280;41907;47.848;9.000;2023-04-24T03:57:31;94882.22;;;9.29;100.00
56038;BME280;41907;47.848;9.000;2023-04-24T03:59:56;94880.25;;;9.18;100.00
56038;BME280;41907;47.848;9.000;2023-04-24T04:02:21;94884.44;;;9.27;100.00
56038;BME280;41907;47.848;9.000;2023-04-24T04:04:47;94885.25;;;9.19;100.00
56038;BME280;41907;47.848;9.000;2023-04-24T04:07:12;94884.31;;;9.15;100.00
56038;BME280;41907;47.848;9.000;2023-04-24T04:09:38;94884.81;;;9.09;100.00
56038;BME280;41907;47.848;9.000;2023-04-24T04:12:03;94876.81;;;9.09;100.00
56038;BME280;41907;47.848;9.000;2023-04-24T04:14:28;94886.06;;;9.11;100.00
56038;BME280;41907;47.848;9.000;2023-04-24T04:16:53;94887.78;;;9.07;100.00
56038;BME280;41907;47.848;9.000;2023-04-24T04:19:18;94893.75;;;9.04;100.00
56038;BME280;41907;47.848;9.000;2023-04-24T04:21:44;94886.97;;;9.15;100.00
56038;BME280;41907;47.848;9.000;2023-04-24T04:24:10;94883.69;;;9.18;100.00
56038;BME280;41907;47.848;9.000;2023-04-24T04:26:36;94894.31;;;9.18;100.00
56038;BME280;41907;47.848;9.000;2023-04-24T04:29:02;94889.47;;;9.20;100.00
56038;BME280;41907;47.848;9.000;2023-04-24T04:31:28;94896.81;;;9.23;100.00
56038;BME280;41907;47.848;9.000;2023-04-24T04:33:54;94897.56;;;9.32;100.00
56038;BME280;41907;47.848;9.000;2023-04-24T04:36:19;94891.50;;;9.23;100.00
56038;BME280;41907;47.848;9.000;2023-04-24T04:38:44;94909.78;;;9.25;100.00
56038;BME280;41907;47.848;9.000;2023-04-24T04:41:10;94909.00;;;9.33;100.00
56038;BME280;41907;47.848;9.000;2023-04-24T04:43:35;94911.31;;;9.34;100.00
56038;BME280;41907;47.848;9.000;2023-04-24T04:46:01;94917.16;;;9.19;100.00
56038;BME280;41907;47.848;9.000;2023-04-24T04:48:28;94917.16;;;9.19;100.00
56038;BME280;41907;47.848;9.000;2023-04-24T04:50:53;94928.13;;;9.18;100.00
56038;BME280;41907;47.848;9.000;2023-04-24T04:53:19;94930.03;;;9.09;100.00
56038;BME280;41907;47.848;9.000;2023-04-24T04:55:44;94933.78;;;9.08;100.00
56038;BME280;41907;47.848;9.000;2023-04-24T04:58:10;94939.44;;;8.98;100.00
56038;BME280;41907;47.848;9.000;2023-04-24T05:00:35;94934.28;;;9.01;100.00
56038;BME280;41907;47.848;9.000;2023-04-24T05:03:02;94943.06;;;8.84;100.00
56038;BME280;41907;47.848;9.000;2023-04-24T05:05:28;94943.06;;;8.84;100.00
56038;BME280;41907;47.848;9.000;2023-04-24T05:07:53;94954.94;;;8.95;100.00
56038;BME280;41907;47.848;9.000;2023-04-24T05:10:18;94951.94;;;8.97;100.00
56038;BME280;41907;47.848;9.000;2023-04-24T05:12:44;94950.88;;;8.81;100.00
56038;BME280;41907;47.848;9.000;2023-04-24T05:15:09;94958.69;;;8.94;100.00
56038;BME280;41907;47.848;9.000;2023-04-24T05:17:34;94969.19;;;8.82;100.00
56038;BME280;41907;47.848;9.000;2023-04-24T05:20:00;94970.28;;;8.81;100.00
56038;BME280;41907;47.848;9.000;2023-04-24T05:22:25;94975.00;;;8.76;100.00
56038;BME280;41907;47.848;9.000;2023-04-24T05:24:50;94982.66;;;8.86;100.00
56038;BME280;41907;47.848;9.000;2023-04-24T05:27:16;94985.13;;;8.82;100.00
56038;BME280;41907;47.848;9.000;2023-04-24T05:29:41;94991.41;;;8.86;100.00
56038;BME280;41907;47.848;9.000;2023-04-24T05:32:06;94994.38;;;8.93;100.00
56038;BME280;41907;47.848;9.000;2023-04-24T05:34:32;94983.41;;;9.04;100.00
56038;BME280;41907;47.848;9.000;2023-04-24T05:36:57;94985.13;;;9.00;100.00
56038;BME280;41907;47.848;9.000;2023-04-24T05:39:22;94988.72;;;9.04;100.00
56038;BME280;41907;47.848;9.000;2023-04-24T05:41:49;94978.19;;;9.16;100.00
56038;BME280;41907;47.848;9.000;2023-04-24T05:44:14;94979.31;;;9.15;100.00
56038;BME280;41907;47.848;9.000;2023-04-24T05:46:40;94975.72;;;9.11;100.00
56038;BME280;41907;47.848;9.000;2023-04-24T05:49:05;94980.41;;;9.22;100.00
56038;BME280;41907;47.848;9.000;2023-04-24T05:51:30;94976.16;;;9.21;100.00
56038;BME280;41907;47.848;9.000;2023-04-24T05:53:56;94992.25;;;9.25;100.00
56038;BME280;41907;47.848;9.000;2023-04-24T05:56:21;94984.69;;;9.44;100.00
56038;BME280;41907;47.848;9.000;2023-04-24T05:58:47;94982.78;;;9.62;100.00
56038;BME280;41907;47.848;9.000;2023-04-24T06:01:12;94984.72;;;9.82;100.00
56038;BME280;41907;47.848;9.000;2023-04-24T06:03:40;94989.53;;;9.97;100.00
56038;BME280;41907;47.848;9.000;2023-04-24T06:06:05;94982.91;;;10.33;100.00
56038;BME280;41907;47.848;9.000;2023-04-24T06:08:31;94992.97;;;13.61;100.00
56038;BME280;41907;47.848;9.000;2023-04-24T06:10:56;94988.72;;;15.92;83.79
56038;BME280;41907;47.848;9.000;2023-04-24T06:13:21;94990.03;;;16.78;77.77
56038;BME280;41907;47.848;9.000;2023-04-24T06:15:46;94994.44;;;15.68;81.17
56038;BME280;41907;47.848;9.000;2023-04-24T06:18:12;95001.34;;;14.38;86.28
56038;BME280;41907;47.848;9.000;2023-04-24T06:20:37;95000.56;;;13.43;91.38
56038;BME280;41907;47.848;9.000;2023-04-24T06:23:02;95006.97;;;12.98;97.38
56038;BME280;41907;47.848;9.000;2023-04-24T06:25:28;95001.19;;;12.44;100.00
56038;BME280;41907;47.848;9.000;2023-04-24T06:27:53;95011.91;;;12.08;100.00
56038;BME280;41907;47.848;9.000;2023-04-24T06:30:19;95012.28;;;11.28;100.00
56038;BME280;41907;47.848;9.000;2023-04-24T06:32:44;95020.56;;;11.14;100.00
56038;BME280;41907;47.848;9.000;2023-04-24T06:35:10;95007.31;;;12.85;97.97
56038;BME280;41907;47.848;9.000;2023-04-24T06:37:36;95012.47;;;12.90;95.99
56038;BME280;41907;47.848;9.000;2023-04-24T06:40:01;95001.91;;;13.81;93.50
56038;BME280;41907;47.848;9.000;2023-04-24T06:42:27;95000.16;;;14.20;87.65
56038;BME280;41907;47.848;9.000;2023-04-24T06:44:52;95007.00;;;13.86;90.66
56038;BME280;41907;47.848;9.000;2023-04-24T06:47:17;95009.25;;;13.84;87.90
56038;BME280;41907;47.848;9.000;2023-04-24T06:49:43;95021.31;;;13.06;91.75
56038;BME280;41907;47.848;9.000;2023-04-24T06:52:08;95013.38;;;14.28;87.15
56038;BME280;41907;47.848;9.000;2023-04-24T06:54:34;95016.03;;;14.95;84.06
56038;BME280;41907;47.848;9.000;2023-04-24T06:56:59;95009.47;;;17.24;71.38
56038;BME280;41907;47.848;9.000;2023-04-24T06:59:28;95011.31;;;15.88;72.02
56038;BME280;41907;47.848;9.000;2023-04-24T07:01:54;95015.53;;;14.89;76.11
56038;BME280;41907;47.848;9.000;2023-04-24T07:04:20;95018.66;;;14.56;78.07
56038;BME280;41907;47.848;9.000;2023-04-24T07:06:45;95029.75;;;14.23;81.88
56038;BME280;41907;47.848;9.000;2023-04-24T07:09:11;95025.97;;;14.40;78.46
56038;BME280;41907;47.848;9.000;2023-04-24T07:11:36;95031.72;;;13.79;82.48
56038;BME280;41907;47.848;9.000;2023-04-24T07:14:04;95030.63;;;13.36;85.12
56038;BME280;41907;47.848;9.000;2023-04-24T07:16:29;95021.09;;;12.71;88.53
56038;BME280;41907;47.848;9.000;2023-04-24T07:18:55;95038.94;;;12.18;90.25
56038;BME280;41907;47.848;9.000;2023-04-24T07:21:20;95054.44;;;11.88;94.62
56038;BME280;41907;47.848;9.000;2023-04-24T07:23:45;95052.06;;;11.54;91.49
56038;BME280;41907;47.848;9.000;2023-04-24T07:26:10;95057.16;;;11.47;90.40
56038;BME280;41907;47.848;9.000;2023-04-24T07:28:36;95056.34;;;11.67;92.51
56038;BME280;41907;47.848;9.000;2023-04-24T07:31:01;95055.34;;;14.21;84.59
56038;BME280;41907;47.848;9.000;2023-04-24T07:33:26;95043.97;;;18.59;62.63
56038;BME280;41907;47.848;9.000;2023-04-24T07:35:52;95047.47;;;19.28;54.85
56038;BME280;41907;47.848;9.000;2023-04-24T07:38:17;95049.34;;;22.01;47.58
56038;BME280;41907;47.848;9.000;2023-04-24T07:40:45;95057.25;;;23.29;41.54
56038;BME280;41907;47.848;9.000;2023-04-24T07:43:10;95065.13;;;23.58;40.57
56038;BME280;41907;47.848;9.000;2023-04-24T07:45:35;95055.22;;;21.85;41.87
56038;BME280;41907;47.848;9.000;2023-04-24T07:48:02;95058.78;;;19.48;48.31
56038;BME280;41907;47.848;9.000;2023-04-24T07:50:27;95068.56;;;17.39;52.03
56038;BME280;41907;47.848;9.000;2023-04-24T07:52:52;95081.59;;;16.09;56.08
56038;BME280;41907;47.848;9.000;2023-04-24T07:55:18;95086.81;;;15.41;61.36
56038;BME280;41907;47.848;9.000;2023-04-24T07:57:43;95091.25;;;14.79;65.64
56038;BME280;41907;47.848;9.000;2023-04-24T08:00:08;95093.69;;;14.21;66.77
56038;BME280;41907;47.848;9.000;2023-04-24T08:02:34;95097.88;;;13.47;67.24
56038;BME280;41907;47.848;9.000;2023-04-24T08:04:59;95105.69;;;12.88;70.69
56038;BME280;41907;47.848;9.000;2023-04-24T08:07:24;95111.03;;;12.76;71.96
56038;BME280;41907;47.848;9.000;2023-04-24T08:09:50;95100.94;;;12.45;73.41
56038;BME280;41907;47.848;9.000;2023-04-24T08:12:15;95113.38;;;12.41;72.89
56038;BME280;41907;47.848;9.000;2023-04-24T08:14:40;95119.31;;;12.34;73.97
56038;BME280;41907;47.848;9.000;2023-04-24T08:17:05;95120.63;;;12.40;73.53
56038;BME280;41907;47.848;9.000;2023-04-24T08:19:31;95122.66;;;12.43;71.01
56038;BME280;41907;47.848;9.000;2023-04-24T08:21:56;95108.50;;;12.43;72.67
56038;BME280;41907;47.848;9.000;2023-04-24T08:24:21;95118.63;;;12.61;71.94
56038;BME280;41907;47.848;9.000;2023-04-24T08:26:47;95128.78;;;12.80;71.35
56038;BME280;41907;47.848;9.000;2023-04-24T08:29:15;95125.75;;;13.18;72.22
56038;BME280;41907;47.848;9.000;2023-04-24T08:31:40;95127.13;;;13.96;69.47
56038;BME280;41907;47.848;9.000;2023-04-24T08:34:05;95134.78;;;14.25;65.12
56038;BME280;41907;47.848;9.000;2023-04-24T08:36:31;95133.13;;;14.05;63.23
56038;BME280;41907;47.848;9.000;2023-04-24T08:38:56;95129.38;;;13.94;64.60
56038;BME280;41907;47.848;9.000;2023-04-24T08:41:22;95125.28;;;13.56;63.28
56038;BME280;41907;47.848;9.000;2023-04-24T08:43:49;95130.09;;;13.11;64.77
56038;BME280;41907;47.848;9.000;2023-04-24T08:46:16;95125.75;;;12.94;65.39
56038;BME280;41907;47.848;9.000;2023-04-24T08:48:41;95123.75;;;12.91;65.00
56038;BME280;41907;47.848;9.000;2023-04-24T08:51:07;95136.16;;;12.83;65.24
56038;BME280;41907;47.848;9.000;2023-04-24T08:53:33;95131.25;;;12.73;66.17
56038;BME280;41907;47.848;9.000;2023-04-24T08:55:58;95139.91;;;13.07;63.53
56038;BME280;41907;47.848;9.000;2023-04-24T08:58:26;95135.31;;;14.15;61.42
56038;BME280;41907;47.848;9.000;2023-04-24T09:00:53;95127.91;;;15.99;58.88
56038;BME280;41907;47.848;9.000;2023-04-24T09:03:19;95137.19;;;16.66;54.63
56038;BME280;41907;47.848;9.000;2023-04-24T09:05:46;95146.56;;;16.53;54.28
56038;BME280;41907;47.848;9.000;2023-04-24T09:08:11;95155.66;;;16.45;52.84
56038;BME280;41907;47.848;9.000;2023-04-24T09:10:38;95162.50;;;15.08;52.84
56038;BME280;41907;47.848;9.000;2023-04-24T09:13:04;95157.94;;;14.61;52.45
56038;BME280;41907;47.848;9.000;2023-04-24T09:15:29;95154.72;;;14.56;53.26
56038;BME280;41907;47.848;9.000;2023-04-24T09:17:55;95171.88;;;14.51;52.62
56038;BME280;41907;47.848;9.000;2023-04-24T09:20:20;95160.28;;;14.78;52.76
56038;BME280;41907;47.848;9.000;2023-04-24T09:22:45;95153.22;;;15.75;50.49
56038;BME280;41907;47.848;9.000;2023-04-24T09:25:11;95155.28;;;16.05;49.96
56038;BME280;41907;47.848;9.000;2023-04-24T09:27:40;95143.16;;;16.56;46.62
56038;BME280;41907;47.848;9.000;2023-04-24T09:30:06;95153.91;;;17.28;45.51
56038;BME280;41907;47.848;9.000;2023-04-24T09:32:32;95150.91;;;17.33;42.47
56038;BME280;41907;47.848;9.000;2023-04-24T09:35:13;95167.28;;;16.95;42.94
56038;BME280;41907;47.848;9.000;2023-04-24T09:37:40;95147.38;;;16.34;42.91
56038;BME280;41907;47.848;9.000;2023-04-24T09:40:14;95164.19;;;15.51;45.43
56038;BME280;41907;47.848;9.000;2023-04-24T09:42:40;95167.34;;;15.02;43.83
56038;BME280;41907;47.848;9.000;2023-04-24T09:45:08;95163.97;;;15.75;43.84
56038;BME280;41907;47.848;9.000;2023-04-24T09:47:37;95164.84;;;16.21;45.00
56038;BME280;41907;47.848;9.000;2023-04-24T09:50:10;95160.22;;;16.41;42.76
56038;BME280;41907;47.848;9.000;2023-04-24T09:52:35;95168.19;;;16.80;41.10
56038;BME280;41907;47.848;9.000;2023-04-24T09:55:00;95168.59;;;17.08;40.87
56038;BME280;41907;47.848;9.000;2023-04-24T09:57:26;95164.06;;;17.12;41.27
56038;BME280;41907;47.848;9.000;2023-04-24T09:59:51;95170.47;;;16.13;41.43
56038;BME280;41907;47.848;9.000;2023-04-24T10:02:18;95177.53;;;15.82;42.42
56038;BME280;41907;47.848;9.000;2023-04-24T10:04:53;95186.91;;;15.53;42.29
56038;BME280;41907;47.848;9.000;2023-04-24T10:07:20;95179.44;;;16.01;43.35
56038;BME280;41907;47.848;9.000;2023-04-24T10:09:45;95174.47;;;16.64;43.74
56038;BME280;41907;47.848;9.000;2023-04-24T10:12:11;95184.94;;;17.19;42.21
56038;BME280;41907;47.848;9.000;2023-04-24T10:14:36;95169.75;;;17.60;40.28
56038;BME280;41907;47.848;9.000;2023-04-24T10:17:02;95180.06;;;17.80;39.46
56038;BME280;41907;47.848;9.000;2023-04-24T10:19:27;95178.13;;;16.76;40.43
56038;BME280;41907;47.848;9.000;2023-04-24T10:21:54;95195.34;;;16.71;41.41
56038;BME280;41907;47.848;9.000;2023-04-24T10:24:21;95201.25;;;17.26;42.25
56038;BME280;41907;47.848;9.000;2023-04-24T10:26:46;95196.16;;;17.21;41.50
56038;BME280;41907;47.848;9.000;2023-04-24T10:29:13;95188.19;;;17.58;38.36
56038;BME280;41907;47.848;9.000;2023-04-24T10:31:40;95196.47;;;17.42;38.44
56038;BME280;41907;47.848;9.000;2023-04-24T10:34:05;95189.50;;;17.97;35.77
56038;BME280;41907;47.848;9.000;2023-04-24T10:36:32;95208.53;;;17.78;36.62
56038;BME280;41907;47.848;9.000;2023-04-24T10:38:59;95212.22;;;17.66;36.38
56038;BME280;41907;47.848;9.000;2023-04-24T10:41:25;95207.19;;;16.89;37.73
56038;BME280;41907;47.848;9.000;2023-04-24T10:46:53;95206.78;;;16.87;38.70
56038;BME280;41907;47.848;9.000;2023-04-24T10:49:27;95219.44;;;17.09;38.97
56038;BME280;41907;47.848;9.000;2023-04-24T10:51:53;95206.66;;;17.56;37.70
56038;BME280;41907;47.848;9.000;2023-04-24T10:54:22;95209.00;;;17.57;37.49
56038;BME280;41907;47.848;9.000;2023-04-24T10:56:47;95203.69;;;18.24;35.97
56038;BME280;41907;47.848;9.000;2023-04-24T10:59:13;95215.44;;;18.39;39.89
56038;BME280;41907;47.848;9.000;2023-04-24T11:01:52;95215.94;;;17.58;37.71
56038;BME280;41907;47.848;9.000;2023-04-24T11:04:21;95228.28;;;17.06;36.82
56038;BME280;41907;47.848;9.000;2023-04-24T11:06:53;95216.97;;;16.97;36.99
56038;BME280;41907;47.848;9.000;2023-04-24T11:09:18;95206.81;;;17.14;36.12
56038;BME280;41907;47.848;9.000;2023-04-24T11:11:45;95199.66;;;16.98;36.52
56038;BME280;41907;47.848;9.000;2023-04-24T11:14:13;95200.28;;;17.41;40.79
56038;BME280;41907;47.848;9.000;2023-04-24T11:16:42;95204.25;;;17.73;39.90
56038;BME280;41907;47.848;9.000;2023-04-24T11:21:45;95211.97;;;16.34;39.46
56038;BME280;41907;47.848;9.000;2023-04-24T11:26:47;95235.97;;;15.66;40.69
56038;BME280;41907;47.848;9.000;2023-04-24T11:29:13;95228.94;;;14.95;42.25
56038;BME280;41907;47.848;9.000;2023-04-24T11:31:39;95240.88;;;14.82;43.13
56038;BME280;41907;47.848;9.000;2023-04-24T11:34:08;95238.81;;;14.91;43.54
56038;BME280;41907;47.848;9.000;2023-04-24T11:36:34;95237.41;;;15.29;44.47
56038;BME280;41907;47.848;9.000;2023-04-24T11:38:59;95235.81;;;15.59;45.00
56038;BME280;41907;47.848;9.000;2023-04-24T11:41:25;95237.50;;;16.02;43.34
56038;BME280;41907;47.848;9.000;2023-04-24T11:43:51;95234.00;;;15.82;44.76
56038;BME280;41907;47.848;9.000;2023-04-24T11:46:18;95246.34;;;15.83;42.90
56038;BME280;41907;47.848;9.000;2023-04-24T11:48:46;95240.66;;;16.08;43.82
56038;BME280;41907;47.848;9.000;2023-04-24T11:51:12;95239.13;;;16.07;43.30
56038;BME280;41907;47.848;9.000;2023-04-24T11:53:37;95232.25;;;16.09;44.06
56038;BME280;41907;47.848;9.000;2023-04-24T11:56:03;95251.25;;;15.46;46.20
56038;BME280;41907;47.848;9.000;2023-04-24T11:58:28;95253.09;;;15.26;45.56
56038;BME280;41907;47.848;9.000;2023-04-24T12:00:56;95250.41;;;14.95;44.99
56038;BME280;41907;47.848;9.000;2023-04-24T12:03:23;95257.53;;;15.03;45.70
56038;BME280;41907;47.848;9.000;2023-04-24T12:05:48;95248.47;;;14.48;45.40
56038;BME280;41907;47.848;9.000;2023-04-24T12:08:26;95252.94;;;14.88;46.31
56038;BME280;41907;47.848;9.000;2023-04-24T12:10:51;95252.78;;;14.81;46.87
56038;BME280;41907;47.848;9.000;2023-04-24T12:13:17;95264.72;;;14.40;46.04
56038;BME280;41907;47.848;9.000;2023-04-24T12:15:42;95262.16;;;14.31;47.62
56038;BME280;41907;47.848;9.000;2023-04-24T12:18:07;95270.03;;;14.24;47.17
56038;BME280;41907;47.848;9.000;2023-04-24T12:20:36;95266.19;;;14.25;47.13
56038;BME280;41907;47.848;9.000;2023-04-24T12:23:01;95260.34;;;14.07;46.84
56038;BME280;41907;47.848;9.000;2023-04-24T12:25:27;95273.91;;;13.99;49.45
56038;BME280;41907;47.848;9.000;2023-04-24T12:28:08;95270.44;;;13.98;46.78
56038;BME280;41907;47.848;9.000;2023-04-24T12:30:47;95269.06;;;13.76;47.49
56038;BME280;41907;47.848;9.000;2023-04-24T12:33:17;95264.06;;;14.03;47.12
56038;BME280;41907;47.848;9.000;2023-04-24T12:35:42;95260.91;;;14.13;47.77
56038;BME280;41907;47.848;9.000;2023-04-24T12:38:08;95265.47;;;14.12;46.00
56038;BME280;41907;47.848;9.000;2023-04-24T12:40:34;95263.13;;;14.67;45.30
56038;BME280;41907;47.848;9.000;2023-04-24T12:42:59;95254.56;;;15.24;46.15
56038;BME280;41907;47.848;9.000;2023-04-24T12:45:24;95243.75;;;15.71;43.21
56038;BME280;41907;47.848;9.000;2023-04-24T12:47:50;95247.00;;;15.61;43.23
56038;BME280;41907;47.848;9.000;2023-04-24T12:50:15;95234.88;;;15.36;42.44
56038;BME280;41907;47.848;9.000;2023-04-24T12:52:41;95235.31;;;15.22;43.91
56038;BME280;41907;47.848;9.000;2023-04-24T12:55:07;95238.03;;;15.06;44.01
56038;BME280;41907;47.848;9.000;2023-04-24T12:57:37;95233.28;;;15.66;46.13
56038;BME280;41907;47.848;9.000;2023-04-24T13:00:03;95228.44;;;15.91;43.27